Time;durP1;ratioP1;P1;durP2;ratioP2;P2;SDS_P1;SDS_P2;PMS_P1;PMS_P2;Temp;Humidity;BMP_temperature;BMP_pressure;BME280_temperature;BME280_humidity;BME280_pressure;Samples;Min_cycle;Max_cycle;Signal;HPM_P1;HPM_P2
2021/07/09 16:23:41;;;;;;;13.10;5.32;;;;;;;22.74;49.14;96530.97;4145454;27;10000921;-66
2021/07/09 16:35:31;;;;;;;11.57;4.80;;;;;;;23.84;47.56;96521.31;5004379;28;20495;-52
2021/07/09 16:37:57;;;;;;;14.38;4.03;;;;;;;23.43;48.22;96512.47;4131929;28;10000928;-56
2021/07/09 16:40:22;;;;;;;9.23;3.88;;;;;;;23.31;48.52;96515.94;5003640;28;20030;-51
2021/07/09 16:42:50;;;;;;;8.18;3.88;;;;;;;23.22;49.03;96516.09;5002636;28;20053;-52
2021/07/09 16:45:15;;;;;;;6.28;3.50;;;;;;;23.11;49.19;96521.09;5003176;28;20109;-52
2021/07/09 16:47:41;;;;;;;7.32;3.78;;;;;;;23.03;49.36;96516.63;5000598;28;20064;-52
2021/07/09 16:50:06;;;;;;;10.40;4.63;;;;;;;22.97;49.36;96517.94;4998519;28;20438;-52
2021/07/09 16:52:32;;;;;;;7.35;4.15;;;;;;;22.93;49.86;96517.03;5001383;28;20034;-52
2021/07/09 16:54:57;;;;;;;7.60;3.67;;;;;;;22.89;49.71;96514.25;4995327;28;20084;-52
2021/07/09 16:57:23;;;;;;;6.80;2.83;;;;;;;22.88;49.40;96518.06;5003273;28;20541;-52
2021/07/09 16:59:48;;;;;;;7.10;2.83;;;;;;;22.85;49.23;96518.72;5004530;28;20030;-51
2021/07/09 17:02:14;;;;;;;24.10;7.63;;;;;;;22.84;49.52;96517.16;5004292;28;20076;-52
2021/07/09 17:04:39;;;;;;;177.63;65.57;;;;;;;22.83;49.68;96514.81;5002714;28;20026;-52
2021/07/09 17:07:05;;;;;;;68.03;23.58;;;;;;;22.83;50.25;96514.81;5000982;28;20502;-52
2021/07/09 17:09:31;;;;;;;43.22;15.23;;;;;;;22.84;50.21;96508.34;5003496;28;20026;-52
2021/07/09 17:11:56;;;;;;;35.13;15.35;;;;;;;22.85;50.77;96509.91;5004128;28;20068;-52
2021/07/09 17:14:22;;;;;;;32.92;12.48;;;;;;;22.86;50.68;96508.81;5001729;28;20026;-54
2021/07/09 17:16:47;;;;;;;38.85;14.23;;;;;;;22.87;51.58;96510.34;5002095;28;20506;-53
2021/07/09 17:19:13;;;;;;;26.50;11.60;;;;;;;22.87;51.46;96508.47;5002986;28;20026;-52
2021/07/09 17:21:38;;;;;;;29.85;10.90;;;;;;;22.88;51.87;96503.91;5003182;28;20035;-53
2021/07/09 17:24:04;;;;;;;19.88;9.68;;;;;;;22.89;51.63;96500.09;5003536;28;20079;-54
2021/07/09 17:26:29;;;;;;;19.92;9.38;;;;;;;22.88;51.63;96506.59;5003389;28;20054;-52
2021/07/09 17:28:55;;;;;;;29.05;8.35;;;;;;;22.88;51.12;96504.69;5004343;28;20490;-51
2021/07/09 17:31:20;;;;;;;21.60;8.90;;;;;;;22.89;50.86;96513.47;5003516;28;20027;-52
2021/07/09 17:33:46;;;;;;;20.45;7.43;;;;;;;22.87;51.31;96499.66;5002929;28;20113;-52
2021/07/09 17:36:12;;;;;;;21.05;7.07;;;;;;;22.87;50.86;96499.66;5002987;28;20414;-52
2021/07/09 17:38:38;;;;;;;21.60;6.35;;;;;;;22.87;51.10;96505.78;4999819;28;20027;-52
2021/07/09 17:41:03;;;;;;;15.75;6.43;;;;;;;22.87;50.99;96499.66;5002441;28;20417;-52
2021/07/09 17:43:29;;;;;;;13.63;6.07;;;;;;;22.86;50.64;96498.88;5003103;28;20890;-52
2021/07/09 17:45:54;;;;;;;15.57;5.85;;;;;;;22.87;51.02;96505.00;4995874;28;20105;-53
2021/07/09 17:48:20;;;;;;;8.32;4.90;;;;;;;22.85;50.61;96500.00;4990329;28;20406;-52
2021/07/09 17:50:45;;;;;;;15.27;5.75;;;;;;;22.85;50.84;96508.00;4990347;28;20034;-53
2021/07/09 17:53:10;;;;;;;7.97;3.65;;;;;;;22.84;50.35;96508.34;4989390;28;20434;-53
2021/07/09 17:55:36;;;;;;;12.13;3.75;;;;;;;22.82;50.07;96507.88;4971951;28;20148;-52
2021/07/09 17:58:01;;;;;;;7.03;3.97;;;;;;;22.82;49.59;96514.03;4970968;28;20042;-54
2021/07/09 18:00:27;;;;;;;6.22;3.10;;;;;;;22.81;49.67;96507.13;4970541;28;20054;-54
2021/07/09 18:02:52;;;;;;;7.93;3.40;;;;;;;22.80;49.75;96502.91;4969915;28;20203;-54
2021/07/09 18:05:18;;;;;;;13.15;3.97;;;;;;;22.81;49.65;96504.44;4981681;28;20026;-54
2021/07/09 18:07:43;;;;;;;9.38;4.07;;;;;;;22.80;49.43;96510.13;4989279;28;20031;-53
2021/07/09 18:10:09;;;;;;;7.20;3.60;;;;;;;22.78;49.18;96507.81;4989069;28;20033;-54
2021/07/09 18:12:35;;;;;;;8.00;3.10;;;;;;;22.78;49.44;96504.31;4987051;28;20045;-53
2021/07/09 18:15:06;;;;;;;16.02;4.38;;;;;;;22.77;49.59;96506.22;4988622;28;20441;-53
2021/07/09 18:17:35;;;;;;;15.30;3.42;;;;;;;22.76;49.48;96510.03;4986910;28;20030;-52
2021/07/09 18:20:02;;;;;;;10.50;3.80;;;;;;;22.74;49.67;96507.69;4986771;28;20045;-52
2021/07/09 18:22:27;;;;;;;11.50;3.13;;;;;;;22.73;49.93;96503.44;4987831;28;20395;-52
2021/07/09 18:24:53;;;;;;;10.52;3.90;;;;;;;22.73;49.88;96508.78;4984062;28;20089;-52
2021/07/09 18:27:18;;;;;;;8.73;3.17;;;;;;;22.73;49.65;96506.09;4969822;28;20039;-52
2021/07/09 18:29:43;;;;;;;9.05;2.65;;;;;;;22.73;49.76;96503.44;4970303;28;20019;-52
2021/07/09 18:32:09;;;;;;;10.43;3.35;;;;;;;22.72;50.31;96506.47;4978212;28;20026;-52
2021/07/09 18:34:34;;;;;;;5.18;2.78;;;;;;;22.72;49.97;96503.78;4973860;28;20459;-52
2021/07/09 18:37:00;;;;;;;5.18;3.13;;;;;;;22.72;49.98;96506.47;4969677;28;20023;-52
2021/07/09 18:39:25;;;;;;;6.78;2.80;;;;;;;22.70;50.29;96501.44;4969584;28;20022;-52
2021/07/09 18:41:50;;;;;;;6.13;2.17;;;;;;;22.71;50.45;96491.50;4969717;28;20026;-52
2021/07/09 18:44:16;;;;;;;9.10;2.95;;;;;;;22.69;50.50;96497.19;4968868;28;20042;-52
2021/07/09 18:46:41;;;;;;;4.85;2.00;;;;;;;22.69;50.60;96494.50;4979110;28;20026;-52
2021/07/09 18:49:07;;;;;;;6.45;2.25;;;;;;;22.69;50.48;96491.06;4987845;28;20434;-52
2021/07/09 18:51:34;;;;;;;4.82;2.30;;;;;;;22.68;50.47;96497.53;4978954;28;20403;-53
2021/07/09 18:53:59;;;;;;;6.70;2.30;;;;;;;22.68;50.24;96500.22;4969125;28;20030;-52
2021/07/09 18:56:25;;;;;;;5.78;2.25;;;;;;;22.67;50.54;96507.44;4976226;28;20522;-52
2021/07/09 18:58:51;;;;;;;3.88;1.85;;;;;;;22.66;50.29;96516.59;4988285;28;20026;-52
2021/07/09 19:01:17;;;;;;;3.55;1.88;;;;;;;22.66;50.47;96516.59;4988797;28;20026;-52
2021/07/09 19:03:42;;;;;;;2.25;1.80;;;;;;;22.65;50.43;96514.25;4988554;28;20026;-52
2021/07/09 19:06:08;;;;;;;3.47;1.92;;;;;;;22.65;50.48;96524.94;4987717;28;20076;-52
2021/07/09 19:08:34;;;;;;;5.70;2.30;;;;;;;22.64;50.34;96529.50;4937426;28;20058;-52
2021/07/09 19:11:00;;;;;;;3.22;1.77;;;;;;;22.64;50.57;96524.16;4987402;28;20046;-52
2021/07/09 19:13:26;;;;;;;3.42;2.08;;;;;;;22.63;50.32;96519.13;4987492;28;20026;-52
2021/07/09 19:15:51;;;;;;;3.53;2.30;;;;;;;22.62;50.25;96521.03;4985207;28;20081;-52
2021/07/09 19:18:17;;;;;;;3.90;1.92;;;;;;;22.61;50.08;96519.47;4986203;28;20027;-52
2021/07/09 19:20:42;;;;;;;2.97;1.67;;;;;;;22.61;50.22;96538.19;4988222;28;20100;-52
2021/07/09 19:23:07;;;;;;;2.50;1.70;;;;;;;22.61;49.83;96530.16;4987747;28;20390;-52
2021/07/09 19:25:33;;;;;;;2.63;1.55;;;;;;;22.58;50.09;96525.50;4988412;28;20084;-52
2021/07/09 19:27:59;;;;;;;5.97;1.67;;;;;;;22.59;49.88;96526.25;4988158;28;20810;-52
2021/07/09 19:30:25;;;;;;;2.38;1.50;;;;;;;22.58;49.58;96533.50;4988316;28;20107;-52
2021/07/09 19:32:51;;;;;;;2.75;1.63;;;;;;;22.56;49.76;96527.72;4983589;28;20034;-52
2021/07/09 19:35:16;;;;;;;3.63;1.67;;;;;;;22.57;49.60;96531.16;4986747;28;20046;-53
2021/07/09 19:37:42;;;;;;;5.57;1.48;;;;;;;22.56;49.58;96534.94;4988368;28;20034;-52
2021/07/09 19:40:09;;;;;;;4.50;1.48;;;;;;;22.54;49.60;96532.59;5012977;28;20033;-52
2021/07/09 19:42:35;;;;;;;4.53;1.50;;;;;;;22.54;49.45;96535.28;4971398;28;20031;-53
2021/07/09 19:45:00;;;;;;;2.38;1.50;;;;;;;22.53;49.41;96537.16;4985944;28;20022;-52
2021/07/09 19:47:26;;;;;;;1.63;1.20;;;;;;;22.50;49.37;96529.81;4987318;28;20034;-52
2021/07/09 19:49:51;;;;;;;3.13;1.33;;;;;;;22.51;49.07;96538.59;4987979;28;20022;-52
2021/07/09 19:52:16;;;;;;;3.58;1.38;;;;;;;22.50;48.83;96537.84;4987273;28;20108;-52
2021/07/09 19:54:42;;;;;;;1.45;1.30;;;;;;;22.50;49.21;96529.81;4937054;28;20050;-52
2021/07/09 19:57:07;;;;;;;1.98;1.35;;;;;;;22.48;49.01;96532.03;4986051;28;20406;-52
2021/07/09 19:59:33;;;;;;;2.70;1.38;;;;;;;22.47;48.73;96535.81;4984799;28;20041;-52
2021/07/09 20:02:00;;;;;;;2.00;1.50;;;;;;;22.48;48.74;96541.94;4970575;28;20030;-52
2021/07/09 20:04:25;;;;;;;3.70;1.38;;;;;;;22.46;49.11;96544.94;4979077;28;20501;-52
2021/07/09 20:06:50;;;;;;;2.17;1.40;;;;;;;22.47;48.74;96548.41;4987667;28;20026;-52
2021/07/09 20:09:16;;;;;;;2.28;1.38;;;;;;;22.46;48.87;96552.19;4987378;28;20053;-53
2021/07/09 20:11:42;;;;;;;1.23;1.10;;;;;;;22.45;48.95;96556.72;4987767;28;20505;-52
2021/07/09 20:14:12;;;;;;;1.73;1.40;;;;;;;22.44;48.67;96546.41;4987038;28;20406;-52
2021/07/09 20:16:38;;;;;;;2.28;1.33;;;;;;;22.44;48.57;96543.72;4978633;28;20027;-53
2021/07/09 20:19:04;;;;;;;3.17;1.23;;;;;;;22.43;48.56;96537.56;4986564;28;20128;-53
2021/07/09 20:21:29;;;;;;;2.90;1.40;;;;;;;22.43;48.69;96544.81;4985726;28;20510;-52
2021/07/09 20:23:54;;;;;;;1.75;1.42;;;;;;;22.42;48.77;96548.63;4967488;28;20034;-52
2021/07/09 20:26:21;;;;;;;1.92;1.27;;;;;;;22.41;48.47;96541.69;4971586;28;20038;-53
2021/07/09 20:28:48;;;;;;;5.22;1.70;;;;;;;22.40;48.40;96538.25;4986665;28;20033;-53
2021/07/09 20:31:14;;;;;;;3.35;1.40;;;;;;;22.39;48.75;96550.03;4986639;28;20100;-53
2021/07/09 20:33:40;;;;;;;2.80;1.40;;;;;;;22.39;48.58;96546.59;4986522;28;20495;-53
2021/07/09 20:36:08;;;;;;;3.45;1.55;;;;;;;22.38;48.55;96545.81;4985965;28;20022;-52
2021/07/09 20:38:38;;;;;;;5.55;1.58;;;;;;;22.38;48.60;96547.72;4987370;28;20031;-53
2021/07/09 20:41:04;;;;;;;2.45;1.77;;;;;;;22.38;48.97;96550.38;4987907;28;20022;-52
2021/07/09 20:43:29;;;;;;;2.10;1.33;;;;;;;22.37;48.97;96546.13;4986999;28;20026;-52
2021/07/09 20:45:55;;;;;;;2.53;1.50;;;;;;;22.36;49.16;96553.38;4987875;28;20406;-53
2021/07/09 20:48:20;;;;;;;2.58;1.75;;;;;;;22.36;49.18;96555.28;4987422;28;20402;-52
2021/07/09 20:50:46;;;;;;;1.70;1.55;;;;;;;22.36;48.90;96547.25;4987457;28;20034;-53
2021/07/09 20:53:12;;;;;;;3.88;1.40;;;;;;;22.35;49.42;96546.47;4986145;28;20038;-52
2021/07/09 20:55:37;;;;;;;2.45;1.55;;;;;;;22.35;49.28;96549.13;4986877;28;20039;-53
2021/07/09 20:58:03;;;;;;;3.33;1.60;;;;;;;22.34;49.44;96555.59;4987398;28;20037;-53
2021/07/09 21:00:28;;;;;;;3.13;1.58;;;;;;;22.34;49.58;96547.59;4987133;28;20387;-52
2021/07/09 21:02:54;;;;;;;3.22;1.42;;;;;;;22.33;49.48;96552.16;4987845;28;20701;-54
2021/07/09 21:05:19;;;;;;;3.42;1.40;;;;;;;22.33;49.77;96546.00;4986887;28;20042;-53
2021/07/09 21:07:45;;;;;;;2.70;1.70;;;;;;;22.32;49.97;96550.59;4986007;28;20515;-54
2021/07/09 21:10:11;;;;;;;3.42;1.60;;;;;;;22.32;49.83;96552.47;4987066;28;20041;-53
2021/07/09 21:12:36;;;;;;;3.30;1.98;;;;;;;22.32;49.94;96537.22;4987256;28;20052;-52
2021/07/09 21:15:03;;;;;;;1.95;1.42;;;;;;;22.31;50.02;96542.88;4987244;28;20406;-52
2021/07/09 21:17:29;;;;;;;1.98;1.48;;;;;;;22.30;50.13;96536.78;4975350;28;20070;-52
2021/07/09 21:19:54;;;;;;;4.13;1.42;;;;;;;22.30;50.04;96530.66;4987561;28;20022;-52
2021/07/09 21:22:20;;;;;;;2.47;1.25;;;;;;;22.30;50.31;96534.09;4989987;28;20453;-52
2021/07/09 21:24:45;;;;;;;3.50;1.52;;;;;;;22.29;50.29;96529.84;4989992;28;20040;-52
2021/07/09 21:27:10;;;;;;;1.85;1.30;;;;;;;22.29;50.29;96535.19;4989899;28;20512;-52
2021/07/09 21:29:36;;;;;;;2.35;1.58;;;;;;;22.29;50.18;96535.19;4990829;28;20034;-52
2021/07/09 21:32:01;;;;;;;2.58;1.30;;;;;;;22.28;50.38;96530.97;4990607;28;20030;-52
2021/07/09 21:34:27;;;;;;;1.27;1.17;;;;;;;22.29;50.33;96531.75;4989864;28;20067;-51
2021/07/09 21:36:52;;;;;;;1.50;1.10;;;;;;;22.27;50.41;96526.72;4990551;28;20497;-52
2021/07/09 21:39:17;;;;;;;2.08;1.40;;;;;;;22.27;50.46;96528.63;4990062;28;20038;-52
2021/07/09 21:41:43;;;;;;;2.88;1.55;;;;;;;22.27;50.23;96526.72;4990478;28;20037;-52
2021/07/09 21:44:08;;;;;;;2.17;1.27;;;;;;;22.26;50.35;96525.19;4989821;28;20030;-52
2021/07/09 21:46:34;;;;;;;1.50;1.30;;;;;;;22.25;50.63;96522.81;4990091;28;20104;-53
2021/07/09 21:48:59;;;;;;;1.70;1.40;;;;;;;22.26;50.74;96519.06;4990641;28;20026;-52
2021/07/09 21:51:25;;;;;;;1.52;1.30;;;;;;;22.25;50.38;96518.25;4990481;28;20026;-51
2021/07/09 21:53:50;;;;;;;1.30;1.20;;;;;;;22.24;50.64;96515.94;4972298;28;20116;-51
2021/07/09 21:56:15;;;;;;;1.52;1.33;;;;;;;22.23;50.44;96511.66;4990222;28;20060;-52
2021/07/09 21:58:41;;;;;;;3.10;1.33;;;;;;;22.22;50.52;96510.88;4990093;28;20043;-52
2021/07/09 22:01:06;;;;;;;1.73;1.48;;;;;;;22.22;50.34;96516.22;4990240;28;20031;-52
2021/07/09 22:03:32;;;;;;;1.45;1.27;;;;;;;22.20;50.67;96513.09;4989749;28;20026;-52
2021/07/09 22:05:57;;;;;;;2.05;1.70;;;;;;;22.19;50.35;96510.75;4990097;28;20550;-51
2021/07/09 22:08:22;;;;;;;2.53;1.23;;;;;;;22.18;50.75;96515.34;4990047;28;20027;-51
2021/07/09 22:10:48;;;;;;;2.75;1.48;;;;;;;22.18;50.72;96507.31;4989949;28;20030;-51
2021/07/09 22:13:13;;;;;;;3.58;1.35;;;;;;;22.17;50.41;96504.97;4989314;28;20030;-51
2021/07/09 22:15:39;;;;;;;1.70;1.45;;;;;;;22.17;50.65;96510.31;4990087;28;20151;-51
2021/07/09 22:18:04;;;;;;;1.65;1.30;;;;;;;22.15;50.78;96507.97;4989732;28;20038;-52
2021/07/09 22:20:30;;;;;;;1.65;1.30;;;;;;;22.15;50.84;96507.97;4989332;28;20037;-52
2021/07/09 22:22:55;;;;;;;1.40;1.30;;;;;;;22.14;50.67;96507.19;4989900;28;20033;-51
2021/07/09 22:25:20;;;;;;;1.70;1.42;;;;;;;22.13;50.83;96512.84;4989578;28;20477;-51
2021/07/09 22:27:46;;;;;;;1.35;1.25;;;;;;;22.13;51.10;96510.97;4989381;28;20034;-51
2021/07/09 22:30:12;;;;;;;1.55;1.20;;;;;;;22.11;50.89;96505.19;4989425;28;20045;-52
2021/07/09 22:32:37;;;;;;;1.90;1.40;;;;;;;22.11;50.90;96505.19;4989156;28;20031;-52
2021/07/09 22:35:04;;;;;;;2.10;1.50;;;;;;;22.11;50.65;96505.19;4989471;28;20050;-51
2021/07/09 22:37:30;;;;;;;1.60;1.50;;;;;;;22.10;50.99;96495.59;4989271;28;20054;-52
2021/07/09 22:39:55;;;;;;;1.85;1.50;;;;;;;22.09;50.84;96499.41;4989768;28;20030;-52
2021/07/09 22:42:20;;;;;;;1.70;1.25;;;;;;;22.09;50.82;96502.06;4989098;28;20674;-51
2021/07/09 22:44:46;;;;;;;1.77;1.40;;;;;;;22.08;50.91;96495.16;4988937;28;20038;-52
2021/07/09 22:47:11;;;;;;;2.22;1.50;;;;;;;22.07;51.00;96485.59;4989282;28;20033;-51
2021/07/09 22:49:37;;;;;;;1.98;1.55;;;;;;;22.06;51.05;96478.66;4989331;28;20034;-52
2021/07/09 22:52:02;;;;;;;2.20;1.55;;;;;;;22.06;50.90;96484.00;4989063;28;20038;-51
2021/07/09 22:54:28;;;;;;;2.20;1.30;;;;;;;22.06;51.11;96485.91;4988556;28;20053;-52
2021/07/09 22:56:53;;;;;;;2.13;1.50;;;;;;;22.05;51.51;96487.78;4989503;28;20037;-51
2021/07/09 22:59:19;;;;;;;2.10;1.58;;;;;;;22.04;51.09;96486.22;4988656;28;20113;-51
2021/07/09 23:01:44;;;;;;;1.80;1.70;;;;;;;22.03;50.98;96490.00;4989246;28;20034;-52
2021/07/09 23:04:09;;;;;;;1.48;1.30;;;;;;;22.03;51.05;96484.66;4988782;28;20030;-52
2021/07/09 23:06:35;;;;;;;2.10;1.50;;;;;;;22.02;51.21;96487.66;4988859;28;20034;-51
2021/07/09 23:09:00;;;;;;;2.20;1.60;;;;;;;22.00;51.06;96485.31;4988640;28;20034;-52
2021/07/09 23:11:27;;;;;;;1.73;1.48;;;;;;;22.00;51.09;96479.97;4987726;28;20446;-52
2021/07/09 23:13:52;;;;;;;2.03;1.40;;;;;;;21.99;51.09;96482.97;4989068;28;20034;-51
2021/07/09 23:16:18;;;;;;;1.90;1.50;;;;;;;21.98;51.26;96474.19;4988693;28;20026;-53
2021/07/09 23:18:43;;;;;;;1.60;1.50;;;;;;;21.98;51.17;96479.53;4988490;28;20034;-52
2021/07/09 23:21:08;;;;;;;1.48;1.38;;;;;;;21.97;51.29;96477.94;4988452;28;20489;-52
2021/07/09 23:23:34;;;;;;;1.60;1.20;;;;;;;21.95;51.42;96477.50;4988153;28;20060;-53
2021/07/09 23:25:59;;;;;;;2.45;1.77;;;;;;;21.95;51.33;96477.50;4988699;28;20031;-52
2021/07/09 23:28:25;;;;;;;2.33;1.70;;;;;;;21.94;51.50;96474.06;4988540;28;20550;-52
2021/07/09 23:30:50;;;;;;;2.88;1.30;;;;;;;21.94;51.20;96473.28;4988327;28;20022;-52
2021/07/09 23:33:18;;;;;;;1.65;1.40;;;;;;;21.92;51.45;96470.94;4987737;28;20030;-52
2021/07/09 23:35:45;;;;;;;1.75;1.40;;;;;;;21.91;51.37;96465.91;4988301;28;20042;-53
2021/07/09 23:38:10;;;;;;;1.55;1.35;;;;;;;21.91;51.37;96460.56;4986846;28;20035;-52
2021/07/09 23:40:35;;;;;;;1.42;1.30;;;;;;;21.90;51.45;96459.03;4987885;28;20037;-53
2021/07/09 23:43:01;;;;;;;1.40;1.30;;;;;;;21.88;51.50;96464.69;4986558;28;20560;-53
2021/07/09 23:45:26;;;;;;;2.65;1.70;;;;;;;21.87;51.33;96457.81;4988505;28;20380;-53
2021/07/09 23:47:53;;;;;;;1.50;1.40;;;;;;;21.88;51.56;96450.56;4988524;28;20557;-52
2021/07/09 23:50:18;;;;;;;1.42;1.33;;;;;;;21.86;51.64;96448.22;4987897;28;20027;-53
2021/07/09 23:52:44;;;;;;;3.90;1.40;;;;;;;21.85;51.48;96453.88;4987838;28;20677;-53
2021/07/09 23:55:10;;;;;;;2.03;1.40;;;;;;;21.84;51.54;96453.09;4988174;28;20034;-53
2021/07/09 23:57:35;;;;;;;1.77;1.50;;;;;;;21.82;51.59;96447.31;4988227;28;20498;-52
